sensor_id;sensor_type;location;lat;lon;timestamp;temperature;humidity
35127;DHT22;21300;52.006;5.798;2023-02-23T00:01:36;8.50;99.90
35127;DHT22;21300;52.006;5.798;2023-02-23T00:04:02;8.50;99.90
35127;DHT22;21300;52.006;5.798;2023-02-23T00:06:29;8.50;99.90
35127;DHT22;21300;52.006;5.798;2023-02-23T00:08:55;8.50;99.90
35127;DHT22;21300;52.006;5.798;2023-02-23T00:11:23;8.50;99.90
35127;DHT22;21300;52.006;5.798;2023-02-23T00:13:50;8.50;99.90
35127;DHT22;21300;52.006;5.798;2023-02-23T00:16:18;8.50;99.90
35127;DHT22;21300;52.006;5.798;2023-02-23T00:18:45;8.50;99.90
35127;DHT22;21300;52.006;5.798;2023-02-23T00:21:39;8.50;99.90
35127;DHT22;21300;52.006;5.798;2023-02-23T00:24:07;8.50;99.90
35127;DHT22;21300;52.006;5.798;2023-02-23T00:26:35;8.50;99.90
35127;DHT22;21300;52.006;5.798;2023-02-23T00:29:04;8.50;99.90
35127;DHT22;21300;52.006;5.798;2023-02-23T00:31:30;8.50;99.90
35127;DHT22;21300;52.006;5.798;2023-02-23T00:34:01;8.50;99.90
35127;DHT22;21300;52.006;5.798;2023-02-23T00:36:30;8.50;99.90
35127;DHT22;21300;52.006;5.798;2023-02-23T00:38:58;8.40;99.90
35127;DHT22;21300;52.006;5.798;2023-02-23T00:44:12;8.40;99.90
35127;DHT22;21300;52.006;5.798;2023-02-23T00:46:39;8.40;99.90
35127;DHT22;21300;52.006;5.798;2023-02-23T00:49:06;8.40;99.90
35127;DHT22;21300;52.006;5.798;2023-02-23T00:51:32;8.40;99.90
35127;DHT22;21300;52.006;5.798;2023-02-23T00:53:59;8.40;99.90
35127;DHT22;21300;52.006;5.798;2023-02-23T00:56:25;8.40;99.90
35127;DHT22;21300;52.006;5.798;2023-02-23T00:58:51;8.40;99.90
35127;DHT22;21300;52.006;5.798;2023-02-23T01:01:18;8.40;99.90
35127;DHT22;21300;52.006;5.798;2023-02-23T01:03:44;8.40;99.90
35127;DHT22;21300;52.006;5.798;2023-02-23T01:06:13;8.40;99.90
35127;DHT22;21300;52.006;5.798;2023-02-23T01:08:41;8.40;99.90
35127;DHT22;21300;52.006;5.798;2023-02-23T01:11:12;8.40;99.90
35127;DHT22;21300;52.006;5.798;2023-02-23T01:13:40;8.40;99.90
35127;DHT22;21300;52.006;5.798;2023-02-23T01:16:11;8.40;99.90
35127;DHT22;21300;52.006;5.798;2023-02-23T01:18:38;8.40;99.90
35127;DHT22;21300;52.006;5.798;2023-02-23T01:21:05;8.40;99.90
35127;DHT22;21300;52.006;5.798;2023-02-23T01:23:38;8.40;99.90
35127;DHT22;21300;52.006;5.798;2023-02-23T01:26:03;8.40;99.90
35127;DHT22;21300;52.006;5.798;2023-02-23T01:28:29;8.40;99.90
35127;DHT22;21300;52.006;5.798;2023-02-23T01:30:54;8.40;99.90
35127;DHT22;21300;52.006;5.798;2023-02-23T01:33:20;8.40;99.90
35127;DHT22;21300;52.006;5.798;2023-02-23T01:35:56;8.30;99.90
35127;DHT22;21300;52.006;5.798;2023-02-23T01:38:22;8.30;99.90
35127;DHT22;21300;52.006;5.798;2023-02-23T01:40:47;8.30;99.90
35127;DHT22;21300;52.006;5.798;2023-02-23T01:43:16;8.30;99.90
35127;DHT22;21300;52.006;5.798;2023-02-23T01:45:43;8.30;99.90
35127;DHT22;21300;52.006;5.798;2023-02-23T01:48:12;8.30;99.90
35127;DHT22;21300;52.006;5.798;2023-02-23T01:53:29;8.30;99.90
35127;DHT22;21300;52.006;5.798;2023-02-23T01:56:06;8.30;99.90
35127;DHT22;21300;52.006;5.798;2023-02-23T01:58:38;8.30;99.90
35127;DHT22;21300;52.006;5.798;2023-02-23T02:01:05;8.30;99.90
35127;DHT22;21300;52.006;5.798;2023-02-23T02:03:43;8.30;99.90
35127;DHT22;21300;52.006;5.798;2023-02-23T02:06:12;8.30;99.90
35127;DHT22;21300;52.006;5.798;2023-02-23T02:08:40;8.30;99.90
35127;DHT22;21300;52.006;5.798;2023-02-23T02:11:16;8.30;99.90
35127;DHT22;21300;52.006;5.798;2023-02-23T02:14:23;8.30;99.90
35127;DHT22;21300;52.006;5.798;2023-02-23T02:17:13;8.30;99.90
35127;DHT22;21300;52.006;5.798;2023-02-23T02:25:48;8.30;99.90
35127;DHT22;21300;52.006;5.798;2023-02-23T02:29:06;8.30;99.90
35127;DHT22;21300;52.006;5.798;2023-02-23T02:34:24;8.30;99.90
35127;DHT22;21300;52.006;5.798;2023-02-23T02:37:29;8.20;99.90
35127;DHT22;21300;52.006;5.798;2023-02-23T02:43:04;8.20;99.90
35127;DHT22;21300;52.006;5.798;2023-02-23T02:45:39;8.20;99.90
35127;DHT22;21300;52.006;5.798;2023-02-23T02:50:46;8.20;99.90
35127;DHT22;21300;52.006;5.798;2023-02-23T02:53:19;8.20;99.90
35127;DHT22;21300;52.006;5.798;2023-02-23T02:55:47;8.30;99.90
35127;DHT22;21300;52.006;5.798;2023-02-23T02:58:14;8.20;99.90
35127;DHT22;21300;52.006;5.798;2023-02-23T03:00:46;8.20;99.90
35127;DHT22;21300;52.006;5.798;2023-02-23T03:03:41;8.20;99.90
35127;DHT22;21300;52.006;5.798;2023-02-23T03:06:45;8.20;99.90
35127;DHT22;21300;52.006;5.798;2023-02-23T03:12:36;8.20;99.90
35127;DHT22;21300;52.006;5.798;2023-02-23T03:19:12;8.20;99.90
35127;DHT22;21300;52.006;5.798;2023-02-23T03:25:01;8.20;99.90
35127;DHT22;21300;52.006;5.798;2023-02-23T03:34:14;8.20;99.90
35127;DHT22;21300;52.006;5.798;2023-02-23T03:37:11;8.20;99.90
35127;DHT22;21300;52.006;5.798;2023-02-23T03:40:20;8.20;99.90
35127;DHT22;21300;52.006;5.798;2023-02-23T03:43:08;8.20;99.90
35127;DHT22;21300;52.006;5.798;2023-02-23T03:45:55;8.20;99.90
35127;DHT22;21300;52.006;5.798;2023-02-23T03:48:42;8.20;99.90
35127;DHT22;21300;52.006;5.798;2023-02-23T03:51:30;8.20;99.90
35127;DHT22;21300;52.006;5.798;2023-02-23T03:54:28;8.10;99.90
35127;DHT22;21300;52.006;5.798;2023-02-23T03:57:15;8.10;99.90
35127;DHT22;21300;52.006;5.798;2023-02-23T04:00:04;8.20;99.90
35127;DHT22;21300;52.006;5.798;2023-02-23T04:02:52;8.20;99.90
35127;DHT22;21300;52.006;5.798;2023-02-23T04:05:39;8.10;99.90
35127;DHT22;21300;52.006;5.798;2023-02-23T04:08:29;8.10;99.90
35127;DHT22;21300;52.006;5.798;2023-02-23T04:14:05;8.20;99.90
35127;DHT22;21300;52.006;5.798;2023-02-23T04:16:32;8.10;99.90
35127;DHT22;21300;52.006;5.798;2023-02-23T04:18:58;8.10;99.90
35127;DHT22;21300;52.006;5.798;2023-02-23T04:21:25;8.10;99.90
35127;DHT22;21300;52.006;5.798;2023-02-23T04:23:50;8.10;99.90
35127;DHT22;21300;52.006;5.798;2023-02-23T04:26:16;8.10;99.90
35127;DHT22;21300;52.006;5.798;2023-02-23T04:28:42;8.10;99.90
35127;DHT22;21300;52.006;5.798;2023-02-23T04:31:07;8.10;99.90
35127;DHT22;21300;52.006;5.798;2023-02-23T04:33:33;8.10;99.90
35127;DHT22;21300;52.006;5.798;2023-02-23T04:35:59;8.10;99.90
35127;DHT22;21300;52.006;5.798;2023-02-23T04:38:24;8.10;99.90
35127;DHT22;21300;52.006;5.798;2023-02-23T04:40:50;8.10;99.90
35127;DHT22;21300;52.006;5.798;2023-02-23T04:43:16;8.10;99.90
35127;DHT22;21300;52.006;5.798;2023-02-23T04:45:42;8.10;99.90
35127;DHT22;21300;52.006;5.798;2023-02-23T04:48:08;8.10;99.90
35127;DHT22;21300;52.006;5.798;2023-02-23T04:50:33;8.10;99.90
35127;DHT22;21300;52.006;5.798;2023-02-23T04:52:59;8.10;99.90
35127;DHT22;21300;52.006;5.798;2023-02-23T04:55:25;8.10;99.90
35127;DHT22;21300;52.006;5.798;2023-02-23T04:57:55;8.10;99.90
35127;DHT22;21300;52.006;5.798;2023-02-23T05:00:21;8.10;99.90
35127;DHT22;21300;52.006;5.798;2023-02-23T05:02:47;8.10;99.90
35127;DHT22;21300;52.006;5.798;2023-02-23T05:05:13;8.00;99.90
35127;DHT22;21300;52.006;5.798;2023-02-23T05:07:38;8.10;99.90
35127;DHT22;21300;52.006;5.798;2023-02-23T05:10:05;8.10;99.90
35127;DHT22;21300;52.006;5.798;2023-02-23T05:12:31;8.10;99.90
35127;DHT22;21300;52.006;5.798;2023-02-23T05:14:57;8.10;99.90
35127;DHT22;21300;52.006;5.798;2023-02-23T05:17:22;8.00;99.90
35127;DHT22;21300;52.006;5.798;2023-02-23T05:19:48;8.00;99.90
35127;DHT22;21300;52.006;5.798;2023-02-23T05:22:14;8.10;99.90
35127;DHT22;21300;52.006;5.798;2023-02-23T05:24:40;8.00;99.90
35127;DHT22;21300;52.006;5.798;2023-02-23T05:27:09;8.10;99.90
35127;DHT22;21300;52.006;5.798;2023-02-23T05:29:34;8.00;99.90
35127;DHT22;21300;52.006;5.798;2023-02-23T05:32:00;8.00;99.90
35127;DHT22;21300;52.006;5.798;2023-02-23T05:34:26;8.10;99.90
35127;DHT22;21300;52.006;5.798;2023-02-23T05:36:51;8.00;99.90
35127;DHT22;21300;52.006;5.798;2023-02-23T05:39:19;8.00;99.90
35127;DHT22;21300;52.006;5.798;2023-02-23T05:41:44;8.00;99.90
35127;DHT22;21300;52.006;5.798;2023-02-23T05:44:10;8.00;99.90
35127;DHT22;21300;52.006;5.798;2023-02-23T05:46:36;8.00;99.90
35127;DHT22;21300;52.006;5.798;2023-02-23T05:49:01;8.00;99.90
35127;DHT22;21300;52.006;5.798;2023-02-23T05:51:29;8.00;99.90
35127;DHT22;21300;52.006;5.798;2023-02-23T05:53:55;8.00;99.90
35127;DHT22;21300;52.006;5.798;2023-02-23T05:56:20;8.00;99.90
35127;DHT22;21300;52.006;5.798;2023-02-23T05:58:47;8.00;99.90
35127;DHT22;21300;52.006;5.798;2023-02-23T06:01:13;8.00;99.90
35127;DHT22;21300;52.006;5.798;2023-02-23T06:03:39;8.00;99.90
35127;DHT22;21300;52.006;5.798;2023-02-23T06:06:05;8.00;99.90
35127;DHT22;21300;52.006;5.798;2023-02-23T06:08:31;8.00;99.90
35127;DHT22;21300;52.006;5.798;2023-02-23T06:10:57;8.00;99.90
35127;DHT22;21300;52.006;5.798;2023-02-23T06:13:22;8.00;99.90
35127;DHT22;21300;52.006;5.798;2023-02-23T06:15:48;8.00;99.90
35127;DHT22;21300;52.006;5.798;2023-02-23T06:18:14;8.00;99.90
35127;DHT22;21300;52.006;5.798;2023-02-23T06:20:41;8.00;99.90
35127;DHT22;21300;52.006;5.798;2023-02-23T06:23:06;8.00;99.90
35127;DHT22;21300;52.006;5.798;2023-02-23T06:25:32;8.00;99.90
35127;DHT22;21300;52.006;5.798;2023-02-23T06:27:58;7.90;99.90
35127;DHT22;21300;52.006;5.798;2023-02-23T06:30:23;7.90;99.90
35127;DHT22;21300;52.006;5.798;2023-02-23T06:32:49;7.90;99.90
35127;DHT22;21300;52.006;5.798;2023-02-23T06:35:15;7.90;99.90
35127;DHT22;21300;52.006;5.798;2023-02-23T06:37:40;7.90;99.90
35127;DHT22;21300;52.006;5.798;2023-02-23T06:40:06;8.00;99.90
35127;DHT22;21300;52.006;5.798;2023-02-23T06:42:32;7.90;99.90
35127;DHT22;21300;52.006;5.798;2023-02-23T06:45:00;8.00;99.90
35127;DHT22;21300;52.006;5.798;2023-02-23T06:47:26;7.90;99.90
35127;DHT22;21300;52.006;5.798;2023-02-23T06:49:51;7.90;99.90
35127;DHT22;21300;52.006;5.798;2023-02-23T06:52:17;7.90;99.90
35127;DHT22;21300;52.006;5.798;2023-02-23T06:54:43;7.90;99.90
35127;DHT22;21300;52.006;5.798;2023-02-23T06:57:08;7.90;99.90
35127;DHT22;21300;52.006;5.798;2023-02-23T06:59:34;7.90;99.90
35127;DHT22;21300;52.006;5.798;2023-02-23T07:02:01;7.90;99.90
35127;DHT22;21300;52.006;5.798;2023-02-23T07:04:30;7.90;99.90
35127;DHT22;21300;52.006;5.798;2023-02-23T07:06:56;7.90;99.90
35127;DHT22;21300;52.006;5.798;2023-02-23T07:09:22;7.90;99.90
35127;DHT22;21300;52.006;5.798;2023-02-23T07:11:47;7.90;99.90
35127;DHT22;21300;52.006;5.798;2023-02-23T07:14:13;7.90;99.90
35127;DHT22;21300;52.006;5.798;2023-02-23T07:16:38;7.90;99.90
35127;DHT22;21300;52.006;5.798;2023-02-23T07:19:05;7.90;99.90
35127;DHT22;21300;52.006;5.798;2023-02-23T07:21:31;7.90;99.90
35127;DHT22;21300;52.006;5.798;2023-02-23T07:23:58;7.90;99.90
35127;DHT22;21300;52.006;5.798;2023-02-23T07:26:23;7.90;99.90
35127;DHT22;21300;52.006;5.798;2023-02-23T07:28:49;7.90;99.90
35127;DHT22;21300;52.006;5.798;2023-02-23T07:33:59;7.90;99.90
35127;DHT22;21300;52.006;5.798;2023-02-23T07:36:24;7.90;99.90
35127;DHT22;21300;52.006;5.798;2023-02-23T07:38:50;7.90;99.90
35127;DHT22;21300;52.006;5.798;2023-02-23T07:41:16;7.90;99.90
35127;DHT22;21300;52.006;5.798;2023-02-23T07:43:42;7.90;99.90
35127;DHT22;21300;52.006;5.798;2023-02-23T07:46:07;7.90;99.90
35127;DHT22;21300;52.006;5.798;2023-02-23T07:48:33;7.90;99.90
35127;DHT22;21300;52.006;5.798;2023-02-23T07:50:58;7.90;99.90
35127;DHT22;21300;52.006;5.798;2023-02-23T07:53:24;7.80;99.90
35127;DHT22;21300;52.006;5.798;2023-02-23T07:55:58;7.90;99.90
35127;DHT22;21300;52.006;5.798;2023-02-23T07:58:25;7.90;99.90
35127;DHT22;21300;52.006;5.798;2023-02-23T08:00:51;7.90;99.90
35127;DHT22;21300;52.006;5.798;2023-02-23T08:03:17;7.80;99.90
35127;DHT22;21300;52.006;5.798;2023-02-23T08:06:01;7.80;99.90
35127;DHT22;21300;52.006;5.798;2023-02-23T08:08:27;7.80;99.90
35127;DHT22;21300;52.006;5.798;2023-02-23T08:11:00;7.80;99.90
35127;DHT22;21300;52.006;5.798;2023-02-23T08:13:26;7.90;99.90
35127;DHT22;21300;52.006;5.798;2023-02-23T08:15:51;7.90;99.90
35127;DHT22;21300;52.006;5.798;2023-02-23T08:18:17;7.80;99.90
35127;DHT22;21300;52.006;5.798;2023-02-23T08:20:42;7.90;99.90
35127;DHT22;21300;52.006;5.798;2023-02-23T08:23:08;7.80;99.90
35127;DHT22;21300;52.006;5.798;2023-02-23T08:25:35;7.90;99.90
35127;DHT22;21300;52.006;5.798;2023-02-23T08:28:00;7.90;99.90
35127;DHT22;21300;52.006;5.798;2023-02-23T08:30:29;7.90;99.90
35127;DHT22;21300;52.006;5.798;2023-02-23T08:32:56;7.80;99.90
35127;DHT22;21300;52.006;5.798;2023-02-23T08:35:21;7.90;99.90
35127;DHT22;21300;52.006;5.798;2023-02-23T08:37:47;7.90;99.90
35127;DHT22;21300;52.006;5.798;2023-02-23T08:40:14;7.80;99.90
35127;DHT22;21300;52.006;5.798;2023-02-23T08:42:43;7.90;99.90
35127;DHT22;21300;52.006;5.798;2023-02-23T08:45:09;7.90;99.90
35127;DHT22;21300;52.006;5.798;2023-02-23T08:47:35;7.90;99.90
35127;DHT22;21300;52.006;5.798;2023-02-23T08:50:01;7.90;99.90
35127;DHT22;21300;52.006;5.798;2023-02-23T08:52:27;7.90;99.90
35127;DHT22;21300;52.006;5.798;2023-02-23T08:54:53;7.90;99.90
35127;DHT22;21300;52.006;5.798;2023-02-23T08:57:19;7.90;99.90
35127;DHT22;21300;52.006;5.798;2023-02-23T08:59:45;7.90;99.90
35127;DHT22;21300;52.006;5.798;2023-02-23T09:02:12;7.90;99.90
35127;DHT22;21300;52.006;5.798;2023-02-23T09:04:38;7.90;99.90
35127;DHT22;21300;52.006;5.798;2023-02-23T09:07:07;7.90;99.90
35127;DHT22;21300;52.006;5.798;2023-02-23T09:09:33;7.90;99.90
35127;DHT22;21300;52.006;5.798;2023-02-23T09:11:59;7.90;99.90
35127;DHT22;21300;52.006;5.798;2023-02-23T09:14:26;7.90;99.90
35127;DHT22;21300;52.006;5.798;2023-02-23T09:16:52;7.90;99.90
35127;DHT22;21300;52.006;5.798;2023-02-23T09:19:17;7.90;99.90
35127;DHT22;21300;52.006;5.798;2023-02-23T09:21:44;7.90;99.90
35127;DHT22;21300;52.006;5.798;2023-02-23T09:24:10;7.90;99.90
35127;DHT22;21300;52.006;5.798;2023-02-23T09:26:36;7.90;99.90
35127;DHT22;21300;52.006;5.798;2023-02-23T09:29:05;7.90;99.90
35127;DHT22;21300;52.006;5.798;2023-02-23T09:31:31;8.00;99.90
35127;DHT22;21300;52.006;5.798;2023-02-23T09:33:57;7.90;99.90
35127;DHT22;21300;52.006;5.798;2023-02-23T09:36:25;7.90;99.90
35127;DHT22;21300;52.006;5.798;2023-02-23T09:38:53;7.90;99.90
35127;DHT22;21300;52.006;5.798;2023-02-23T09:41:51;8.00;99.90
35127;DHT22;21300;52.006;5.798;2023-02-23T09:44:36;8.00;99.90
35127;DHT22;21300;52.006;5.798;2023-02-23T09:47:20;8.00;99.90
35127;DHT22;21300;52.006;5.798;2023-02-23T09:49:49;8.00;99.90
35127;DHT22;21300;52.006;5.798;2023-02-23T09:52:23;8.00;99.90
35127;DHT22;21300;52.006;5.798;2023-02-23T09:54:49;8.00;99.90
35127;DHT22;21300;52.006;5.798;2023-02-23T09:57:20;8.00;99.90
35127;DHT22;21300;52.006;5.798;2023-02-23T09:59:48;8.00;99.90
35127;DHT22;21300;52.006;5.798;2023-02-23T10:05:04;8.10;99.90
35127;DHT22;21300;52.006;5.798;2023-02-23T10:07:50;8.00;99.90
35127;DHT22;21300;52.006;5.798;2023-02-23T10:21:02;8.10;99.90
35127;DHT22;21300;52.006;5.798;2023-02-23T10:23:36;8.10;99.90
35127;DHT22;21300;52.006;5.798;2023-02-23T10:26:04;8.10;99.90
35127;DHT22;21300;52.006;5.798;2023-02-23T10:28:35;8.10;99.90
35127;DHT22;21300;52.006;5.798;2023-02-23T10:31:06;8.10;99.90
35127;DHT22;21300;52.006;5.798;2023-02-23T10:33:42;8.10;99.90
35127;DHT22;21300;52.006;5.798;2023-02-23T10:36:30;8.20;99.90
35127;DHT22;21300;52.006;5.798;2023-02-23T10:38:58;8.10;99.90
35127;DHT22;21300;52.006;5.798;2023-02-23T10:41:24;8.20;99.90
35127;DHT22;21300;52.006;5.798;2023-02-23T10:43:49;8.10;99.90
35127;DHT22;21300;52.006;5.798;2023-02-23T10:46:21;8.10;99.90
35127;DHT22;21300;52.006;5.798;2023-02-23T10:48:49;8.20;99.90
35127;DHT22;21300;52.006;5.798;2023-02-23T10:51:20;8.20;99.90
35127;DHT22;21300;52.006;5.798;2023-02-23T10:53:48;8.20;99.90
35127;DHT22;21300;52.006;5.798;2023-02-23T10:56:16;8.20;99.90
35127;DHT22;21300;52.006;5.798;2023-02-23T10:58:46;8.20;99.90
35127;DHT22;21300;52.006;5.798;2023-02-23T11:01:14;8.20;99.90
35127;DHT22;21300;52.006;5.798;2023-02-23T11:03:49;8.20;99.90
35127;DHT22;21300;52.006;5.798;2023-02-23T11:06:33;8.20;99.90
35127;DHT22;21300;52.006;5.798;2023-02-23T11:14:24;8.20;99.90
35127;DHT22;21300;52.006;5.798;2023-02-23T11:16:54;8.20;99.90
35127;DHT22;21300;52.006;5.798;2023-02-23T11:19:24;8.20;99.90
35127;DHT22;21300;52.006;5.798;2023-02-23T11:21:51;8.20;99.90
35127;DHT22;21300;52.006;5.798;2023-02-23T11:24:38;8.20;99.90
35127;DHT22;21300;52.006;5.798;2023-02-23T11:27:15;8.20;99.90
35127;DHT22;21300;52.006;5.798;2023-02-23T11:29:44;8.20;99.90
35127;DHT22;21300;52.006;5.798;2023-02-23T11:32:15;8.20;99.90
35127;DHT22;21300;52.006;5.798;2023-02-23T11:34:41;8.20;99.90
35127;DHT22;21300;52.006;5.798;2023-02-23T11:39:59;8.20;99.90
35127;DHT22;21300;52.006;5.798;2023-02-23T11:42:30;8.20;99.90
35127;DHT22;21300;52.006;5.798;2023-02-23T11:47:36;8.20;99.90
35127;DHT22;21300;52.006;5.798;2023-02-23T11:50:04;8.30;99.90
35127;DHT22;21300;52.006;5.798;2023-02-23T11:52:30;8.30;99.90
35127;DHT22;21300;52.006;5.798;2023-02-23T11:54:59;8.30;99.90
35127;DHT22;21300;52.006;5.798;2023-02-23T11:57:32;8.30;99.90
35127;DHT22;21300;52.006;5.798;2023-02-23T11:59:59;8.30;99.90
35127;DHT22;21300;52.006;5.798;2023-02-23T12:02:30;8.30;99.90
35127;DHT22;21300;52.006;5.798;2023-02-23T12:05:08;8.30;99.90
35127;DHT22;21300;52.006;5.798;2023-02-23T12:08:05;8.30;99.90
35127;DHT22;21300;52.006;5.798;2023-02-23T12:10:46;8.30;99.90
35127;DHT22;21300;52.006;5.798;2023-02-23T12:13:33;8.30;99.90
35127;DHT22;21300;52.006;5.798;2023-02-23T12:18:36;8.30;99.90
35127;DHT22;21300;52.006;5.798;2023-02-23T12:23:40;8.40;99.90
35127;DHT22;21300;52.006;5.798;2023-02-23T12:26:15;8.40;99.90
35127;DHT22;21300;52.006;5.798;2023-02-23T12:28:53;8.40;99.90
35127;DHT22;21300;52.006;5.798;2023-02-23T12:31:36;8.40;99.90
35127;DHT22;21300;52.006;5.798;2023-02-23T12:34:55;8.40;99.90
35127;DHT22;21300;52.006;5.798;2023-02-23T12:39:57;8.40;99.90
35127;DHT22;21300;52.006;5.798;2023-02-23T12:42:49;8.40;99.90
35127;DHT22;21300;52.006;5.798;2023-02-23T12:45:31;8.40;99.90
35127;DHT22;21300;52.006;5.798;2023-02-23T12:48:14;8.40;99.90
35127;DHT22;21300;52.006;5.798;2023-02-23T12:50:53;8.40;99.90
35127;DHT22;21300;52.006;5.798;2023-02-23T12:56:10;8.40;99.90
35127;DHT22;21300;52.006;5.798;2023-02-23T12:59:05;8.40;99.90
35127;DHT22;21300;52.006;5.798;2023-02-23T13:01:53;8.40;99.90
35127;DHT22;21300;52.006;5.798;2023-02-23T13:07:09;8.40;99.90
35127;DHT22;21300;52.006;5.798;2023-02-23T13:12:39;8.50;99.90
35127;DHT22;21300;52.006;5.798;2023-02-23T13:21:18;8.50;99.90
35127;DHT22;21300;52.006;5.798;2023-02-23T13:24:07;8.50;99.90
35127;DHT22;21300;52.006;5.798;2023-02-23T13:26:58;8.50;99.90
35127;DHT22;21300;52.006;5.798;2023-02-23T13:29:46;8.50;99.90
35127;DHT22;21300;52.006;5.798;2023-02-23T13:32:28;8.50;99.90
35127;DHT22;21300;52.006;5.798;2023-02-23T13:37:37;8.50;99.90
35127;DHT22;21300;52.006;5.798;2023-02-23T13:52:57;8.60;99.90
35127;DHT22;21300;52.006;5.798;2023-02-23T13:58:04;8.50;99.90
35127;DHT22;21300;52.006;5.798;2023-02-23T14:00:30;8.50;99.90
35127;DHT22;21300;52.006;5.798;2023-02-23T14:03:02;8.60;99.90
35127;DHT22;21300;52.006;5.798;2023-02-23T14:05:29;8.60;99.90
35127;DHT22;21300;52.006;5.798;2023-02-23T14:07:58;8.60;99.90
35127;DHT22;21300;52.006;5.798;2023-02-23T14:10:46;8.60;99.90
35127;DHT22;21300;52.006;5.798;2023-02-23T14:18:28;8.60;99.90
35127;DHT22;21300;52.006;5.798;2023-02-23T14:34:52;8.60;99.90
35127;DHT22;21300;52.006;5.798;2023-02-23T14:37:34;8.60;99.90
35127;DHT22;21300;52.006;5.798;2023-02-23T14:42:33;8.60;99.90
35127;DHT22;21300;52.006;5.798;2023-02-23T14:45:04;8.70;99.90
35127;DHT22;21300;52.006;5.798;2023-02-23T14:47:41;8.60;99.90
35127;DHT22;21300;52.006;5.798;2023-02-23T14:50:17;8.70;99.90
35127;DHT22;21300;52.006;5.798;2023-02-23T14:52:44;8.70;99.90
35127;DHT22;21300;52.006;5.798;2023-02-23T14:57:40;8.60;99.90
35127;DHT22;21300;52.006;5.798;2023-02-23T15:03:09;8.70;99.90
35127;DHT22;21300;52.006;5.798;2023-02-23T15:05:58;8.70;99.90
35127;DHT22;21300;52.006;5.798;2023-02-23T15:08:27;8.70;99.90
35127;DHT22;21300;52.006;5.798;2023-02-23T15:10:58;8.70;99.90
35127;DHT22;21300;52.006;5.798;2023-02-23T15:13:31;8.70;99.90
35127;DHT22;21300;52.006;5.798;2023-02-23T15:16:34;8.60;99.90
35127;DHT22;21300;52.006;5.798;2023-02-23T15:19:02;8.70;99.90
35127;DHT22;21300;52.006;5.798;2023-02-23T15:21:29;8.70;99.90
35127;DHT22;21300;52.006;5.798;2023-02-23T15:24:14;8.70;99.90
35127;DHT22;21300;52.006;5.798;2023-02-23T15:26:46;8.70;99.90
35127;DHT22;21300;52.006;5.798;2023-02-23T15:29:13;8.70;99.90
35127;DHT22;21300;52.006;5.798;2023-02-23T15:31:41;8.70;99.90
35127;DHT22;21300;52.006;5.798;2023-02-23T15:34:14;8.70;99.90
35127;DHT22;21300;52.006;5.798;2023-02-23T15:36:51;8.60;99.90
35127;DHT22;21300;52.006;5.798;2023-02-23T15:39:21;8.70;99.90
35127;DHT22;21300;52.006;5.798;2023-02-23T15:41:49;8.70;99.90
35127;DHT22;21300;52.006;5.798;2023-02-23T15:44:23;8.70;99.90
35127;DHT22;21300;52.006;5.798;2023-02-23T15:47:02;8.70;99.90
35127;DHT22;21300;52.006;5.798;2023-02-23T15:49:30;8.70;99.90
35127;DHT22;21300;52.006;5.798;2023-02-23T15:52:08;8.70;99.90
35127;DHT22;21300;52.006;5.798;2023-02-23T15:54:58;8.70;99.90
35127;DHT22;21300;52.006;5.798;2023-02-23T15:57:29;8.70;99.90
35127;DHT22;21300;52.006;5.798;2023-02-23T15:59:57;8.70;99.90
35127;DHT22;21300;52.006;5.798;2023-02-23T16:02:24;8.60;99.90
35127;DHT22;21300;52.006;5.798;2023-02-23T16:04:50;8.70;99.90
35127;DHT22;21300;52.006;5.798;2023-02-23T16:07:34;8.70;99.90
35127;DHT22;21300;52.006;5.798;2023-02-23T16:10:18;8.60;99.90
35127;DHT22;21300;52.006;5.798;2023-02-23T16:12:47;8.70;99.90
35127;DHT22;21300;52.006;5.798;2023-02-23T16:18:11;8.60;99.90
35127;DHT22;21300;52.006;5.798;2023-02-23T16:20:45;8.60;99.90
35127;DHT22;21300;52.006;5.798;2023-02-23T16:23:21;8.70;99.90
35127;DHT22;21300;52.006;5.798;2023-02-23T16:25:52;8.70;99.90
35127;DHT22;21300;52.006;5.798;2023-02-23T16:28:20;8.60;99.90
35127;DHT22;21300;52.006;5.798;2023-02-23T16:30:56;8.60;99.90
35127;DHT22;21300;52.006;5.798;2023-02-23T16:33:27;8.60;99.90
35127;DHT22;21300;52.006;5.798;2023-02-23T16:38:56;8.70;99.90
35127;DHT22;21300;52.006;5.798;2023-02-23T16:41:23;8.60;99.90
35127;DHT22;21300;52.006;5.798;2023-02-23T16:43:52;8.60;99.90
35127;DHT22;21300;52.006;5.798;2023-02-23T16:46:18;8.60;99.90
35127;DHT22;21300;52.006;5.798;2023-02-23T16:48:45;8.60;99.90
35127;DHT22;21300;52.006;5.798;2023-02-23T16:51:15;8.60;99.90
35127;DHT22;21300;52.006;5.798;2023-02-23T16:53:41;8.60;99.90
35127;DHT22;21300;52.006;5.798;2023-02-23T16:56:13;8.60;99.90
35127;DHT22;21300;52.006;5.798;2023-02-23T16:58:42;8.60;99.90
35127;DHT22;21300;52.006;5.798;2023-02-23T17:01:11;8.60;99.90
35127;DHT22;21300;52.006;5.798;2023-02-23T17:03:39;8.60;99.90
35127;DHT22;21300;52.006;5.798;2023-02-23T17:06:05;8.60;99.90
35127;DHT22;21300;52.006;5.798;2023-02-23T17:08:31;8.60;99.90
35127;DHT22;21300;52.006;5.798;2023-02-23T17:11:00;8.60;99.90
35127;DHT22;21300;52.006;5.798;2023-02-23T17:13:26;8.60;99.90
35127;DHT22;21300;52.006;5.798;2023-02-23T17:15:55;8.60;99.90
35127;DHT22;21300;52.006;5.798;2023-02-23T17:18:34;8.60;99.90
35127;DHT22;21300;52.006;5.798;2023-02-23T17:21:04;8.50;99.90
35127;DHT22;21300;52.006;5.798;2023-02-23T17:23:32;8.50;99.90
35127;DHT22;21300;52.006;5.798;2023-02-23T17:26:07;8.50;99.90
35127;DHT22;21300;52.006;5.798;2023-02-23T17:28:33;8.50;99.90
35127;DHT22;21300;52.006;5.798;2023-02-23T17:31:00;8.50;99.90
35127;DHT22;21300;52.006;5.798;2023-02-23T17:33:26;8.50;99.90
35127;DHT22;21300;52.006;5.798;2023-02-23T17:35:53;8.50;99.90
35127;DHT22;21300;52.006;5.798;2023-02-23T17:38:18;8.50;99.90
35127;DHT22;21300;52.006;5.798;2023-02-23T17:40:46;8.50;99.90
35127;DHT22;21300;52.006;5.798;2023-02-23T17:43:11;8.50;99.90
35127;DHT22;21300;52.006;5.798;2023-02-23T17:45:37;8.50;99.90
35127;DHT22;21300;52.006;5.798;2023-02-23T17:48:03;8.40;99.90
35127;DHT22;21300;52.006;5.798;2023-02-23T17:50:29;8.50;99.90
35127;DHT22;21300;52.006;5.798;2023-02-23T17:52:55;8.40;99.90
35127;DHT22;21300;52.006;5.798;2023-02-23T17:55:22;8.50;99.90
35127;DHT22;21300;52.006;5.798;2023-02-23T17:57:48;8.40;99.90
35127;DHT22;21300;52.006;5.798;2023-02-23T18:00:15;8.40;99.90
35127;DHT22;21300;52.006;5.798;2023-02-23T18:02:43;8.40;99.90
35127;DHT22;21300;52.006;5.798;2023-02-23T18:05:09;8.40;99.90
35127;DHT22;21300;52.006;5.798;2023-02-23T18:07:36;8.40;99.90
35127;DHT22;21300;52.006;5.798;2023-02-23T18:10:02;8.40;99.90
35127;DHT22;21300;52.006;5.798;2023-02-23T18:12:28;8.40;99.90
35127;DHT22;21300;52.006;5.798;2023-02-23T18:14:57;8.30;99.90
35127;DHT22;21300;52.006;5.798;2023-02-23T18:17:22;8.40;99.90
35127;DHT22;21300;52.006;5.798;2023-02-23T18:19:48;8.30;99.90
35127;DHT22;21300;52.006;5.798;2023-02-23T18:22:15;8.30;99.90
35127;DHT22;21300;52.006;5.798;2023-02-23T18:24:41;8.30;99.90
35127;DHT22;21300;52.006;5.798;2023-02-23T18:27:07;8.30;99.90
35127;DHT22;21300;52.006;5.798;2023-02-23T18:29:34;8.30;99.90